Terminal Aerodrome Forecast
Issued by NWS

Home | Current Version | Previous Version | Text Only | Print | Product List | Glossary Off
Versions: 1 2 3 4 5 6 7 8 9 10 11 12 13 14 15 16 17 18 19

000
FTUS42 KMHX 011600 AAA
TAFPGV
TAF AMD
KPGV 011606Z 0116/0212 03008KT 1 1/2SM +SHRA BKN006 OVC015
     FM011800 08009KT P6SM VCTS SCT025 BKN040CB
     FM012300 09004KT 4SM BR VCSH BKN025
      AMD LTD TO CLD VIS AND WIND=

USA.gov is the U.S. government's official web portal to all federal, state and local government web resources and services.